createdAt,value
2023-01-09T00:01:38.823Z,967.3
2023-01-09T00:03:40.058Z,967.3
2023-01-09T00:05:41.226Z,967.2
2023-01-09T00:07:42.957Z,967.3
2023-01-09T00:09:44.328Z,967.3
2023-01-09T00:11:45.982Z,967.3
2023-01-09T00:13:47.443Z,967.3
2023-01-09T00:15:48.374Z,967.2
2023-01-09T00:17:50.121Z,967.1
2023-01-09T00:19:51.641Z,967.2
2023-01-09T00:21:53.016Z,967.1
2023-01-09T00:23:54.411Z,967.1
2023-01-09T00:25:56.210Z,967.1
2023-01-09T00:27:57.574Z,967
2023-01-09T00:29:58.910Z,967
2023-01-09T00:32:00.563Z,967
2023-01-09T00:34:02.488Z,966.9
2023-01-09T00:36:04.299Z,967
2023-01-09T00:38:06.056Z,966.9
2023-01-09T00:40:07.203Z,966.9
2023-01-09T00:42:08.327Z,966.8
2023-01-09T00:44:09.466Z,966.8
2023-01-09T00:48:12.033Z,966.8
2023-01-09T00:50:13.463Z,966.8
2023-01-09T00:52:15.025Z,966.9
2023-01-09T00:54:16.866Z,966.8
2023-01-09T00:58:19.715Z,966.8
2023-01-09T01:00:21.625Z,966.8
2023-01-09T01:02:23.506Z,966.8
2023-01-09T01:04:24.988Z,966.8
2023-01-09T01:06:26.762Z,966.8
2023-01-09T01:08:27.927Z,966.7
2023-01-09T01:10:29.679Z,966.7
2023-01-09T01:12:31.355Z,966.7
2023-01-09T01:14:33.194Z,966.7
2023-01-09T01:16:34.990Z,966.7
2023-01-09T01:18:36.007Z,966.7
2023-01-09T01:20:37.392Z,966.7
2023-01-09T01:22:38.615Z,966.6
2023-01-09T01:24:39.625Z,966.7
2023-01-09T01:26:41.258Z,966.6
2023-01-09T01:30:44.599Z,966.6
2023-01-09T01:32:45.851Z,966.6
2023-01-09T01:34:47.840Z,966.6
2023-01-09T01:36:48.784Z,966.6
2023-01-09T01:40:51.752Z,966.6
2023-01-09T01:42:53.192Z,966.5
2023-01-09T01:44:55.111Z,966.4
2023-01-09T01:46:56.576Z,966.6
2023-01-09T01:48:58.378Z,966.4
2023-01-09T01:51:00.263Z,966.4
2023-01-09T01:53:01.484Z,966.3
2023-01-09T01:55:02.574Z,966.2
2023-01-09T01:57:03.866Z,966.3
2023-01-09T01:59:04.967Z,966.3
2023-01-09T02:01:06.892Z,966.3
2023-01-09T02:03:08.208Z,966.3
2023-01-09T02:05:09.423Z,966.2
2023-01-09T02:07:10.659Z,966.3
2023-01-09T02:09:12.372Z,966.3
2023-01-09T02:11:13.376Z,966.3
2023-01-09T02:13:14.730Z,966.3
2023-01-09T02:15:16.461Z,966.3
2023-01-09T02:17:17.824Z,966.3
2023-01-09T02:19:19.026Z,966.2
2023-01-09T02:21:20.596Z,966.3
2023-01-09T02:23:22.410Z,966.3
2023-01-09T02:25:24.295Z,966.2
2023-01-09T02:29:27.490Z,966.3
2023-01-09T02:31:28.651Z,966.2
2023-01-09T02:33:30.284Z,966.3
2023-01-09T02:35:31.752Z,966.2
2023-01-09T02:37:32.989Z,966.1
2023-01-09T02:39:34.549Z,966.2
2023-01-09T02:41:35.908Z,966.1
2023-01-09T02:43:37.821Z,966.1
2023-01-09T02:45:39.753Z,966.1
2023-01-09T02:47:41.287Z,966.1
2023-01-09T02:49:42.754Z,966.2
2023-01-09T02:51:43.971Z,966.1
2023-01-09T02:53:45.282Z,966
2023-01-09T02:55:46.619Z,966.1
2023-01-09T02:57:48.353Z,966.1
2023-01-09T02:59:49.335Z,966
2023-01-09T03:01:50.671Z,965.9
2023-01-09T03:03:52.233Z,965.9
2023-01-09T03:05:53.517Z,965.9
2023-01-09T03:07:55.444Z,965.9
2023-01-09T03:09:56.626Z,965.8
2023-01-09T03:11:57.905Z,965.9
2023-01-09T03:13:58.970Z,965.9
2023-01-09T03:16:00.638Z,965.8
2023-01-09T03:18:02.193Z,966
2023-01-09T03:20:03.815Z,966.1
2023-01-09T03:22:05.218Z,966.2
2023-01-09T03:24:06.593Z,966.2
2023-01-09T03:28:10.029Z,966.3
2023-01-09T03:30:11.333Z,966.4
2023-01-09T03:32:12.738Z,966.3
2023-01-09T03:34:14.311Z,966.4
2023-01-09T03:36:15.379Z,966.3
2023-01-09T03:38:17.103Z,966.4
2023-01-09T03:40:18.191Z,966.3
2023-01-09T03:42:20.036Z,966.4
2023-01-09T03:44:21.241Z,966.5
2023-01-09T03:46:23.071Z,966.5
2023-01-09T03:48:24.524Z,966.6
2023-01-09T03:50:26.063Z,966.6
2023-01-09T03:52:27.146Z,966.6
2023-01-09T03:54:28.646Z,966.6
2023-01-09T03:56:29.829Z,966.6
2023-01-09T03:58:31.323Z,966.6
2023-01-09T04:00:32.486Z,966.7
2023-01-09T04:02:34.241Z,966.6
2023-01-09T04:04:35.585Z,966.8
2023-01-09T04:06:36.665Z,966.8
2023-01-09T04:08:38.118Z,966.9
2023-01-09T04:10:39.760Z,966.9
2023-01-09T04:12:41.399Z,966.8
2023-01-09T04:14:42.936Z,966.8
2023-01-09T04:16:44.242Z,966.9
2023-01-09T04:18:45.218Z,966.9
2023-01-09T04:20:46.686Z,967
2023-01-09T04:22:48.112Z,967.1
2023-01-09T04:24:49.534Z,967
2023-01-09T04:26:50.826Z,967
2023-01-09T04:28:52.617Z,967.1
2023-01-09T04:30:53.988Z,967.2
2023-01-09T04:32:55.183Z,967.2
2023-01-09T04:36:57.859Z,967.4
2023-01-09T04:38:58.996Z,967.6
2023-01-09T04:41:00.907Z,967.6
2023-01-09T04:43:02.469Z,967.6
2023-01-09T04:47:05.079Z,967.7
2023-01-09T04:49:06.473Z,967.7
2023-01-09T04:51:07.635Z,967.6
2023-01-09T04:53:09.048Z,967.5
2023-01-09T04:55:10.831Z,967.5
2023-01-09T04:57:12.052Z,967.6
2023-01-09T04:59:13.650Z,967.8
2023-01-09T05:01:15.434Z,967.9
2023-01-09T05:03:17.177Z,968
2023-01-09T05:05:18.819Z,968
2023-01-09T05:07:20.679Z,968
2023-01-09T05:09:22.489Z,968
2023-01-09T05:11:24.316Z,968.2
2023-01-09T05:13:25.612Z,968.2
2023-01-09T05:15:27.395Z,968.3
2023-01-09T05:19:30.953Z,968.4
2023-01-09T05:21:31.974Z,968.4
2023-01-09T05:23:33.023Z,968.6
2023-01-09T05:24:16.868Z,968.6
2023-01-09T05:26:18.083Z,968.5
2023-01-09T05:30:21.328Z,968.7
2023-01-09T05:32:23.025Z,968.7
2023-01-09T05:34:24.741Z,968.7
2023-01-09T05:36:25.926Z,968.8
2023-01-09T05:38:27.742Z,968.8
2023-01-09T05:40:32.376Z,968.9
2023-01-09T05:42:29.913Z,968.8
2023-01-09T05:44:31.074Z,968.7
2023-01-09T05:46:32.885Z,968.9
2023-01-09T05:48:34.636Z,969
2023-01-09T05:50:35.926Z,969
2023-01-09T05:52:36.889Z,968.8
2023-01-09T05:54:38.663Z,969.1
2023-01-09T05:56:40.453Z,969.1
2023-01-09T05:58:42.217Z,969.2
2023-01-09T06:00:44.093Z,969.1
2023-01-09T06:02:46.100Z,969.2
2023-01-09T06:04:47.381Z,969.2
2023-01-09T06:06:48.941Z,969.2
2023-01-09T06:08:50.119Z,969.2
2023-01-09T06:10:51.944Z,969.4
2023-01-09T06:12:53.238Z,969.3
2023-01-09T06:14:54.339Z,969.5
2023-01-09T06:16:55.803Z,969.5
2023-01-09T06:18:57.341Z,969.6
2023-01-09T06:20:59.213Z,969.7
2023-01-09T06:23:00.767Z,969.6
2023-01-09T06:25:01.928Z,969.6
2023-01-09T06:29:03.937Z,969.6
2023-01-09T06:31:05.518Z,969.7
2023-01-09T06:33:06.414Z,969.8
2023-01-09T06:35:07.909Z,969.9
2023-01-09T06:37:09.640Z,969.9
2023-01-09T06:39:10.964Z,969.8
2023-01-09T06:41:12.583Z,970
2023-01-09T06:43:14.233Z,970
2023-01-09T06:45:15.681Z,970
2023-01-09T06:47:17.105Z,970
2023-01-09T06:49:18.957Z,970.1
2023-01-09T06:51:20.715Z,970
2023-01-09T06:53:22.330Z,970.1
2023-01-09T06:55:23.808Z,970.2
2023-01-09T06:57:25.413Z,970.2
2023-01-09T06:59:27.315Z,970.2
2023-01-09T07:01:28.820Z,970.2
2023-01-09T07:03:31.959Z,970.3
2023-01-09T07:05:32.239Z,970.1
2023-01-09T07:07:33.520Z,970.3
2023-01-09T07:09:34.578Z,970.4
2023-01-09T07:11:36.211Z,970.4
2023-01-09T07:13:38.171Z,970.4
2023-01-09T07:15:39.523Z,970.4
2023-01-09T07:17:40.538Z,970.4
2023-01-09T07:19:41.802Z,970.5
2023-01-09T07:21:43.670Z,970.5
2023-01-09T07:23:45.373Z,970.3
2023-01-09T07:25:46.570Z,970.4
2023-01-09T07:27:48.259Z,970.4
2023-01-09T07:29:50.152Z,970.5
2023-01-09T07:31:51.128Z,970.4
2023-01-09T07:33:52.272Z,970.5
2023-01-09T07:37:55.019Z,970.5
2023-01-09T07:39:56.748Z,970.6
2023-01-09T07:41:58.276Z,970.5
2023-01-09T07:43:59.450Z,970.6
2023-01-09T07:46:00.768Z,970.5
2023-01-09T07:48:02.489Z,970.7
2023-01-09T07:50:04.480Z,970.6
2023-01-09T07:52:06.061Z,970.5
2023-01-09T07:54:07.647Z,970.6
2023-01-09T07:56:09.224Z,970.6
2023-01-09T07:58:10.250Z,970.6
2023-01-09T08:00:11.723Z,970.7
2023-01-09T08:02:13.582Z,970.6
2023-01-09T08:04:15.051Z,970.7
2023-01-09T08:06:16.679Z,970.6
2023-01-09T08:08:17.827Z,970.7
2023-01-09T08:10:18.947Z,970.6
2023-01-09T08:12:20.342Z,970.8
2023-01-09T08:14:21.549Z,970.7
2023-01-09T08:16:22.564Z,970.8
2023-01-09T08:18:23.989Z,970.8
2023-01-09T08:20:25.543Z,970.9
2023-01-09T08:22:26.734Z,970.9
2023-01-09T08:24:28.378Z,970.8
2023-01-09T08:26:29.422Z,970.9
2023-01-09T08:28:30.423Z,970.9
2023-01-09T08:30:32.134Z,970.8
2023-01-09T08:32:33.307Z,970.9
2023-01-09T08:36:36.453Z,970.9
2023-01-09T08:38:38.352Z,970.9
2023-01-09T08:40:40.122Z,971
2023-01-09T08:42:41.605Z,971.1
2023-01-09T08:44:42.899Z,971
2023-01-09T08:46:44.854Z,971
2023-01-09T08:48:46.233Z,971.1
2023-01-09T08:50:47.476Z,971
2023-01-09T08:52:49.400Z,971
2023-01-09T08:54:50.824Z,971
2023-01-09T08:56:52.153Z,971
2023-01-09T08:58:53.473Z,971
2023-01-09T09:00:54.966Z,970.9
2023-01-09T09:02:56.444Z,970.9
2023-01-09T09:04:58.072Z,970.9
2023-01-09T09:06:59.560Z,970.9
2023-01-09T09:09:00.598Z,970.9
2023-01-09T09:11:02.014Z,970.7
2023-01-09T09:13:03.076Z,970.8
2023-01-09T09:15:04.589Z,970.8
2023-01-09T09:17:06.261Z,970.8
2023-01-09T09:19:07.776Z,970.9
2023-01-09T09:21:11.373Z,970.9
2023-01-09T09:23:10.694Z,971
2023-01-09T09:25:12.320Z,970.8
2023-01-09T09:27:14.181Z,970.9
2023-01-09T09:29:16.117Z,971
2023-01-09T09:31:17.589Z,970.9
2023-01-09T09:33:19.464Z,970.9
2023-01-09T09:35:20.421Z,970.9
2023-01-09T09:37:21.781Z,970.9
2023-01-09T09:39:23.127Z,970.9
2023-01-09T09:41:24.053Z,971
2023-01-09T09:43:25.056Z,970.9
2023-01-09T09:45:26.330Z,970.9
2023-01-09T09:47:27.945Z,971.1
2023-01-09T09:49:29.196Z,970.9
2023-01-09T09:51:30.149Z,971
2023-01-09T09:53:31.218Z,971
2023-01-09T09:55:32.716Z,971.1
2023-01-09T09:57:34.622Z,971
2023-01-09T09:59:36.272Z,970.9
2023-01-09T10:01:37.320Z,971
2023-01-09T10:03:38.648Z,971
2023-01-09T10:05:40.262Z,970.9
2023-01-09T10:07:41.832Z,971
2023-01-09T10:09:42.923Z,971
2023-01-09T10:11:44.521Z,970.9
2023-01-09T10:13:45.724Z,970.9
2023-01-09T10:15:47.419Z,970.9
2023-01-09T10:17:49.246Z,971
2023-01-09T10:19:50.435Z,970.9
2023-01-09T10:21:52.095Z,970.9
2023-01-09T10:23:53.596Z,971
2023-01-09T10:25:54.950Z,971
2023-01-09T10:27:56.856Z,971.1
2023-01-09T10:29:58.716Z,971
2023-01-09T10:32:00.418Z,971.1
2023-01-09T10:34:02.095Z,971.1
2023-01-09T10:36:03.724Z,971.1
2023-01-09T10:38:04.849Z,971.1
2023-01-09T10:40:06.328Z,971
2023-01-09T10:42:07.623Z,971
2023-01-09T10:44:09.406Z,971
2023-01-09T10:46:10.233Z,971
2023-01-09T10:50:13.019Z,970.9
2023-01-09T10:52:15.542Z,971
2023-01-09T10:54:15.436Z,970.9
2023-01-09T10:56:17.232Z,970.8
2023-01-09T10:58:19.155Z,970.8
2023-01-09T11:00:22.998Z,970.8
2023-01-09T11:02:21.969Z,970.9
2023-01-09T11:04:23.556Z,970.8
2023-01-09T11:06:24.508Z,970.8
2023-01-09T11:08:25.700Z,970.8
2023-01-09T11:10:27.234Z,970.8
2023-01-09T11:12:29.045Z,970.7
2023-01-09T11:14:30.273Z,970.8
2023-01-09T11:16:31.525Z,970.8
2023-01-09T11:18:33.297Z,970.8
2023-01-09T11:20:34.728Z,970.9
2023-01-09T11:22:36.136Z,970.8
2023-01-09T11:24:37.767Z,970.8
2023-01-09T11:26:39.397Z,970.9
2023-01-09T11:28:40.847Z,970.9
2023-01-09T11:30:41.868Z,970.8
2023-01-09T11:32:43.366Z,970.8
2023-01-09T11:34:45.133Z,971
2023-01-09T11:36:46.376Z,970.9
2023-01-09T11:38:47.292Z,970.9
2023-01-09T11:40:48.611Z,970.8
2023-01-09T11:42:50.268Z,971
2023-01-09T11:44:51.393Z,970.9
2023-01-09T11:48:54.809Z,970.8
2023-01-09T11:50:56.403Z,970.7
2023-01-09T11:52:57.748Z,970.8
2023-01-09T11:54:58.840Z,970.7
2023-01-09T11:57:00.420Z,970.7
2023-01-09T11:59:02.164Z,970.9
2023-01-09T12:01:03.839Z,970.8
2023-01-09T12:03:05.364Z,970.8
2023-01-09T12:05:07.223Z,970.9
2023-01-09T12:07:08.766Z,970.8
2023-01-09T12:09:09.848Z,970.9
2023-01-09T12:09:53.666Z,970.9
2023-01-09T12:11:55.602Z,970.9
2023-01-09T12:13:57.113Z,971
2023-01-09T12:15:58.537Z,971
2023-01-09T12:17:59.769Z,971
2023-01-09T12:20:00.746Z,971
2023-01-09T12:22:02.295Z,971.1
2023-01-09T12:24:03.846Z,971.1
2023-01-09T12:26:05.188Z,971.1
2023-01-09T12:28:06.176Z,971.2
2023-01-09T12:30:07.304Z,971.3
2023-01-09T12:32:08.931Z,971.4
2023-01-09T12:34:09.872Z,971.4
2023-01-09T12:36:11.290Z,971.4
2023-01-09T12:38:12.476Z,971.4
2023-01-09T12:40:13.690Z,971.4
2023-01-09T12:42:15.426Z,971.2
2023-01-09T12:44:27.326Z,971.2
2023-01-09T12:46:18.568Z,971.2
2023-01-09T12:48:19.965Z,971.3
2023-01-09T12:50:21.587Z,971.4
2023-01-09T12:52:22.768Z,971.3
2023-01-09T12:54:24.094Z,971.3
2023-01-09T12:56:25.851Z,971.3
2023-01-09T12:58:27.241Z,971.4
2023-01-09T13:00:29.114Z,971.3
2023-01-09T13:02:30.426Z,971.2
2023-01-09T13:04:31.489Z,971.4
2023-01-09T13:08:34.190Z,971.2
2023-01-09T13:10:35.512Z,971.3
2023-01-09T13:12:36.765Z,971.3
2023-01-09T13:14:38.313Z,971.3
2023-01-09T13:16:39.972Z,971.3
2023-01-09T13:18:41.347Z,971.3
2023-01-09T13:20:43.068Z,971.5
2023-01-09T13:22:44.920Z,971.5
2023-01-09T13:24:46.216Z,971.5
2023-01-09T13:26:47.273Z,971.5
2023-01-09T13:28:49.015Z,971.4
2023-01-09T13:30:50.462Z,971.3
2023-01-09T13:32:52.329Z,971.4
2023-01-09T13:34:53.560Z,971.4
2023-01-09T13:36:55.209Z,971.6
2023-01-09T13:38:56.861Z,971.5
2023-01-09T13:40:58.154Z,971.5
2023-01-09T13:42:59.411Z,971.5
2023-01-09T13:45:00.817Z,971.6
2023-01-09T13:47:01.883Z,971.6
2023-01-09T13:49:03.651Z,971.8
2023-01-09T13:51:05.322Z,971.7
2023-01-09T13:53:07.209Z,971.8
2023-01-09T13:55:08.350Z,971.8
2023-01-09T13:57:09.354Z,971.8
2023-01-09T13:59:11.239Z,971.9
2023-01-09T14:01:13.027Z,971.8
2023-01-09T14:03:14.593Z,972
2023-01-09T14:07:17.389Z,972
2023-01-09T14:09:18.787Z,971.9
2023-01-09T14:11:20.179Z,971.9
2023-01-09T14:13:21.338Z,971.9
2023-01-09T14:15:22.729Z,972
2023-01-09T14:17:23.813Z,971.9
2023-01-09T14:19:24.857Z,971.9
2023-01-09T14:21:25.995Z,972
2023-01-09T14:23:45.881Z,972
2023-01-09T14:25:29.208Z,972
2023-01-09T14:27:30.228Z,972
2023-01-09T14:29:31.422Z,972.1
2023-01-09T14:31:32.894Z,972
2023-01-09T14:33:34.304Z,972
2023-01-09T14:35:35.796Z,972.2
2023-01-09T14:37:37.966Z,972
2023-01-09T14:39:37.911Z,972.1
2023-01-09T14:41:38.995Z,972.2
2023-01-09T14:43:40.300Z,972.2
2023-01-09T14:45:41.477Z,972.2
2023-01-09T14:47:42.489Z,972.3
2023-01-09T14:49:44.298Z,972.3
2023-01-09T14:51:45.324Z,972.1
2023-01-09T14:53:47.176Z,972.3
2023-01-09T14:55:48.804Z,972.2
2023-01-09T14:57:50.046Z,972.2
2023-01-09T14:59:51.646Z,972.4
2023-01-09T15:01:52.754Z,972.4
2023-01-09T15:03:53.965Z,972.4
2023-01-09T15:05:55.614Z,972.3
2023-01-09T15:07:57.270Z,972.4
2023-01-09T15:09:58.575Z,972.5
2023-01-09T15:11:59.531Z,972.5
2023-01-09T15:14:00.537Z,972.5
2023-01-09T15:16:01.931Z,972.5
2023-01-09T15:18:03.539Z,972.6
2023-01-09T15:20:05.511Z,972.7
2023-01-09T15:22:07.055Z,972.8
2023-01-09T15:26:09.975Z,972.7
2023-01-09T15:28:10.948Z,972.7
2023-01-09T15:30:12.689Z,972.8
2023-01-09T15:32:13.865Z,972.7
2023-01-09T15:34:15.612Z,972.8
2023-01-09T15:36:16.706Z,972.9
2023-01-09T15:38:17.922Z,973
2023-01-09T15:40:18.895Z,973
2023-01-09T15:42:19.972Z,973
2023-01-09T15:44:21.470Z,973.1
2023-01-09T15:46:23.224Z,973.2
2023-01-09T15:48:24.864Z,973.1
2023-01-09T15:50:26.416Z,973.1
2023-01-09T15:52:28.001Z,973.2
2023-01-09T15:54:29.253Z,973.2
2023-01-09T15:56:31.042Z,973.2
2023-01-09T15:58:32.969Z,973.4
2023-01-09T16:00:33.992Z,973.4
2023-01-09T16:02:35.570Z,973.4
2023-01-09T16:04:37.441Z,973.5
2023-01-09T16:06:38.579Z,973.5
2023-01-09T16:08:40.209Z,973.5
2023-01-09T16:10:41.708Z,973.6
2023-01-09T16:14:44.600Z,973.6
2023-01-09T16:16:45.807Z,973.6
2023-01-09T16:18:46.797Z,973.5
2023-01-09T16:20:48.155Z,973.6
2023-01-09T16:22:49.495Z,973.6
2023-01-09T16:24:50.719Z,973.5
2023-01-09T16:26:52.385Z,973.6
2023-01-09T16:30:55.159Z,973.7
2023-01-09T16:32:56.873Z,973.7
2023-01-09T16:34:58.522Z,973.8
2023-01-09T16:36:59.850Z,973.7
2023-01-09T16:39:00.839Z,973.8
2023-01-09T16:41:01.842Z,973.8
2023-01-09T16:43:03.257Z,973.8
2023-01-09T16:45:04.563Z,973.8
2023-01-09T16:47:05.940Z,973.7
2023-01-09T16:49:07.333Z,973.7
2023-01-09T16:51:08.364Z,973.8
2023-01-09T16:53:09.957Z,973.9
2023-01-09T16:55:11.442Z,973.9
2023-01-09T16:57:12.638Z,973.9
2023-01-09T16:59:13.651Z,973.8
2023-01-09T17:01:14.868Z,973.9
2023-01-09T17:03:15.723Z,974
2023-01-09T17:05:16.895Z,974
2023-01-09T17:07:17.989Z,974
2023-01-09T17:09:19.412Z,974
2023-01-09T17:11:20.699Z,974
2023-01-09T17:13:22.596Z,974.1
2023-01-09T17:15:24.188Z,974
2023-01-09T17:17:25.536Z,974.2
2023-01-09T17:19:27.109Z,974.2
2023-01-09T17:21:29.140Z,974.2
2023-01-09T17:23:30.104Z,974.2
2023-01-09T17:25:31.833Z,974.2
2023-01-09T17:27:33.371Z,974.3
2023-01-09T17:29:35.340Z,974.3
2023-01-09T17:31:38.552Z,974.3
2023-01-09T17:33:38.047Z,974.2
2023-01-09T17:35:39.217Z,974.3
2023-01-09T17:37:40.471Z,974.3
2023-01-09T17:39:41.493Z,974.4
2023-01-09T17:41:43.331Z,974.4
2023-01-09T17:43:46.750Z,974.5
2023-01-09T17:45:47.005Z,974.4
2023-01-09T17:49:50.018Z,974.5
2023-01-09T17:51:51.204Z,974.5
2023-01-09T17:55:54.392Z,974.6
2023-01-09T17:57:56.319Z,974.7
2023-01-09T17:59:57.745Z,974.6
2023-01-09T18:01:59.640Z,974.7
2023-01-09T18:04:01.388Z,974.7
2023-01-09T18:06:02.733Z,974.8
2023-01-09T18:08:03.799Z,974.7
2023-01-09T18:10:05.162Z,974.8
2023-01-09T18:12:06.923Z,974.8
2023-01-09T18:14:08.067Z,974.8
2023-01-09T18:16:09.381Z,974.9
2023-01-09T18:18:11.157Z,974.7
2023-01-09T18:20:12.985Z,974.8
2023-01-09T18:22:14.319Z,974.8
2023-01-09T18:24:15.837Z,974.7
2023-01-09T18:26:17.504Z,974.8
2023-01-09T18:28:19.051Z,974.7
2023-01-09T18:30:20.562Z,974.8
2023-01-09T18:32:21.767Z,974.7
2023-01-09T18:34:23.637Z,974.8
2023-01-09T18:38:27.815Z,975
2023-01-09T18:40:27.756Z,975.1
2023-01-09T18:42:29.712Z,975.3
2023-01-09T18:44:31.183Z,975.4
2023-01-09T18:46:33.007Z,975.2
2023-01-09T18:48:34.974Z,975.4
2023-01-09T18:50:36.493Z,975.4
2023-01-09T18:52:37.793Z,975.4
2023-01-09T18:54:38.831Z,975.3
2023-01-09T18:55:22.657Z,975.4
2023-01-09T18:57:24.437Z,975.4
2023-01-09T18:59:26.264Z,975.4
2023-01-09T19:01:28.109Z,975.5
2023-01-09T19:03:29.973Z,975.5
2023-01-09T19:05:31.176Z,975.5
2023-01-09T19:07:32.518Z,975.5
2023-01-09T19:09:34.314Z,975.5
2023-01-09T19:11:35.841Z,975.6
2023-01-09T19:13:37.255Z,975.7
2023-01-09T19:15:38.448Z,975.6
2023-01-09T19:17:39.908Z,975.8
2023-01-09T19:19:41.171Z,975.8
2023-01-09T19:21:42.164Z,975.8
2023-01-09T19:23:43.511Z,975.8
2023-01-09T19:25:44.600Z,975.9
2023-01-09T19:27:45.849Z,975.9
2023-01-09T19:31:48.342Z,976
2023-01-09T19:33:50.102Z,976.1
2023-01-09T19:35:51.051Z,976.1
2023-01-09T19:37:53.037Z,976.1
2023-01-09T19:39:54.489Z,976.2
2023-01-09T19:41:56.266Z,976.3
2023-01-09T19:43:57.642Z,976.2
2023-01-09T19:45:59.303Z,976.1
2023-01-09T19:48:00.683Z,976.3
2023-01-09T19:50:04.719Z,976.3
2023-01-09T19:52:04.165Z,976.4
2023-01-09T19:56:06.970Z,976.5
2023-01-09T19:58:08.019Z,976.5
2023-01-09T20:00:09.280Z,976.7
2023-01-09T20:02:11.238Z,976.7
2023-01-09T20:04:12.581Z,976.7
2023-01-09T20:06:14.510Z,976.8
2023-01-09T20:08:16.215Z,976.9
2023-01-09T20:10:17.629Z,976.8
2023-01-09T20:14:21.447Z,976.9
2023-01-09T20:16:23.429Z,976.9
2023-01-09T20:18:24.755Z,977.1
2023-01-09T20:20:26.262Z,977.1
2023-01-09T20:22:27.277Z,977.1
2023-01-09T20:24:28.468Z,977.2
2023-01-09T20:26:30.192Z,977.1
2023-01-09T20:28:31.785Z,977.2
2023-01-09T20:30:32.880Z,977.2
2023-01-09T20:32:34.064Z,977.2
2023-01-09T20:34:35.685Z,977.3
2023-01-09T20:36:37.596Z,977.3
2023-01-09T20:40:41.051Z,977.4
2023-01-09T20:42:42.769Z,977.3
2023-01-09T20:44:43.814Z,977.4
2023-01-09T20:46:45.189Z,977.4
2023-01-09T20:48:46.410Z,977.5
2023-01-09T20:50:48.395Z,977.5
2023-01-09T20:52:49.471Z,977.5
2023-01-09T20:54:51.077Z,977.4
2023-01-09T20:56:52.362Z,977.5
2023-01-09T20:58:53.392Z,977.5
2023-01-09T21:00:55.400Z,977.6
2023-01-09T21:02:56.402Z,977.6
2023-01-09T21:04:58.097Z,977.7
2023-01-09T21:06:59.797Z,977.7
2023-01-09T21:09:00.993Z,977.7
2023-01-09T21:11:02.241Z,977.9
2023-01-09T21:13:04.059Z,977.8
2023-01-09T21:15:05.069Z,977.9
2023-01-09T21:17:06.297Z,977.9
2023-01-09T21:19:08.252Z,977.9
2023-01-09T21:23:11.661Z,977.9
2023-01-09T21:25:13.404Z,978.1
2023-01-09T21:27:14.959Z,978
2023-01-09T21:29:16.877Z,978.2
2023-01-09T21:33:20.078Z,978.2
2023-01-09T21:35:22.020Z,978.2
2023-01-09T21:37:23.197Z,978.2
2023-01-09T21:39:24.354Z,978
2023-01-09T21:41:25.410Z,978.1
2023-01-09T21:43:27.332Z,978.1
2023-01-09T21:45:28.437Z,978.1
2023-01-09T21:47:29.460Z,978.2
2023-01-09T21:49:30.760Z,978.1
2023-01-09T21:51:32.041Z,978.2
2023-01-09T21:53:33.694Z,978.2
2023-01-09T21:55:35.190Z,978.3
2023-01-09T21:57:36.645Z,978.4
2023-01-09T21:59:38.224Z,978.3
2023-01-09T22:01:39.715Z,978.4
2023-01-09T22:03:41.504Z,978.4
2023-01-09T22:05:43.256Z,978.4
2023-01-09T22:07:44.756Z,978.4
2023-01-09T22:09:46.207Z,978.4
2023-01-09T22:11:47.306Z,978.5
2023-01-09T22:13:48.873Z,978.4
2023-01-09T22:15:50.812Z,978.5
2023-01-09T22:17:52.264Z,978.5
2023-01-09T22:21:55.417Z,978.7
2023-01-09T22:23:56.830Z,978.7
2023-01-09T22:25:58.473Z,978.7
2023-01-09T22:28:00.324Z,978.7
2023-01-09T22:30:02.298Z,978.8
2023-01-09T22:32:03.539Z,978.6
2023-01-09T22:34:04.620Z,978.8
2023-01-09T22:36:05.993Z,978.9
2023-01-09T22:38:07.239Z,978.8
2023-01-09T22:40:08.927Z,978.9
2023-01-09T22:42:10.454Z,978.9
2023-01-09T22:44:12.232Z,979
2023-01-09T22:46:14.066Z,979
2023-01-09T22:48:15.498Z,979.1
2023-01-09T22:50:17.016Z,979.2
2023-01-09T22:52:18.103Z,979.3
2023-01-09T22:54:19.202Z,979.1
2023-01-09T22:56:20.374Z,979.2
2023-01-09T22:58:21.517Z,979.2
2023-01-09T23:00:22.815Z,979.4
2023-01-09T23:02:24.454Z,979.4
2023-01-09T23:04:25.586Z,979.4
2023-01-09T23:06:27.471Z,979.4
2023-01-09T23:08:29.451Z,979.4
2023-01-09T23:10:30.498Z,979.4
2023-01-09T23:12:31.604Z,979.6
2023-01-09T23:14:33.371Z,979.5
2023-01-09T23:16:35.226Z,979.6
2023-01-09T23:18:37.021Z,979.6
2023-01-09T23:20:38.230Z,979.6
2023-01-09T23:22:39.230Z,979.6
2023-01-09T23:24:40.772Z,979.6
2023-01-09T23:26:42.225Z,979.5
2023-01-09T23:28:44.137Z,979.7
2023-01-09T23:30:45.935Z,979.7
2023-01-09T23:32:47.140Z,979.7
2023-01-09T23:34:49.115Z,979.8
2023-01-09T23:36:51.133Z,979.8
2023-01-09T23:38:52.824Z,979.8
2023-01-09T23:40:53.984Z,979.8
2023-01-09T23:42:55.572Z,979.8
2023-01-09T23:44:57.227Z,979.9
2023-01-09T23:46:59.053Z,979.9
2023-01-09T23:49:00.618Z,980
2023-01-09T23:51:01.912Z,980
2023-01-09T23:53:03.392Z,980
2023-01-09T23:55:04.873Z,980
2023-01-09T23:57:05.864Z,980
2023-01-09T23:59:07.543Z,980.1
